sensor_id;sensor_type;location;lat;lon;timestamp;P1;durP1;ratioP1;P2;durP2;ratioP2
23242;SDS011;11790;49.578;11.214;2024-02-23T00:02:07;0.80;;;0.43;;
23242;SDS011;11790;49.578;11.214;2024-02-23T00:07:08;1.88;;;0.43;;
23242;SDS011;11790;49.578;11.214;2024-02-23T00:12:09;0.93;;;0.50;;
23242;SDS011;11790;49.578;11.214;2024-02-23T00:17:09;6.07;;;0.60;;
23242;SDS011;11790;49.578;11.214;2024-02-23T00:22:09;2.40;;;0.40;;
23242;SDS011;11790;49.578;11.214;2024-02-23T00:27:10;0.77;;;0.40;;
23242;SDS011;11790;49.578;11.214;2024-02-23T00:32:10;2.73;;;0.50;;
23242;SDS011;11790;49.578;11.214;2024-02-23T00:37:10;1.75;;;0.30;;
23242;SDS011;11790;49.578;11.214;2024-02-23T00:42:11;1.35;;;0.30;;
23242;SDS011;11790;49.578;11.214;2024-02-23T00:47:11;0.50;;;0.20;;
23242;SDS011;11790;49.578;11.214;2024-02-23T00:52:11;0.60;;;0.40;;
23242;SDS011;11790;49.578;11.214;2024-02-23T00:57:11;4.73;;;0.40;;
23242;SDS011;11790;49.578;11.214;2024-02-23T01:02:12;0.30;;;0.20;;
23242;SDS011;11790;49.578;11.214;2024-02-23T01:07:12;1.57;;;0.30;;
23242;SDS011;11790;49.578;11.214;2024-02-23T01:12:13;0.35;;;0.20;;
23242;SDS011;11790;49.578;11.214;2024-02-23T01:17:14;3.28;;;0.50;;
23242;SDS011;11790;49.578;11.214;2024-02-23T01:22:17;1.85;;;0.30;;
23242;SDS011;11790;49.578;11.214;2024-02-23T01:27:18;2.23;;;0.40;;
23242;SDS011;11790;49.578;11.214;2024-02-23T01:32:18;0.85;;;0.40;;
23242;SDS011;11790;49.578;11.214;2024-02-23T01:37:18;0.43;;;0.40;;
23242;SDS011;11790;49.578;11.214;2024-02-23T01:42:19;0.70;;;0.20;;
23242;SDS011;11790;49.578;11.214;2024-02-23T01:47:19;4.30;;;0.47;;
23242;SDS011;11790;49.578;11.214;2024-02-23T01:52:19;1.63;;;0.40;;
23242;SDS011;11790;49.578;11.214;2024-02-23T01:57:20;3.38;;;0.47;;
23242;SDS011;11790;49.578;11.214;2024-02-23T02:02:21;0.80;;;0.40;;
23242;SDS011;11790;49.578;11.214;2024-02-23T02:07:21;1.20;;;0.40;;
23242;SDS011;11790;49.578;11.214;2024-02-23T02:12:28;2.58;;;0.30;;
23242;SDS011;11790;49.578;11.214;2024-02-23T02:17:28;0.73;;;0.35;;
23242;SDS011;11790;49.578;11.214;2024-02-23T02:22:29;0.95;;;0.32;;
23242;SDS011;11790;49.578;11.214;2024-02-23T02:27:29;2.30;;;0.40;;
23242;SDS011;11790;49.578;11.214;2024-02-23T02:32:29;1.37;;;0.47;;
23242;SDS011;11790;49.578;11.214;2024-02-23T02:37:29;2.53;;;0.52;;
23242;SDS011;11790;49.578;11.214;2024-02-23T02:42:32;4.68;;;0.68;;
23242;SDS011;11790;49.578;11.214;2024-02-23T02:47:32;1.73;;;0.40;;
23242;SDS011;11790;49.578;11.214;2024-02-23T02:52:33;2.17;;;0.70;;
23242;SDS011;11790;49.578;11.214;2024-02-23T03:03:12;3.67;;;0.82;;
23242;SDS011;11790;49.578;11.214;2024-02-23T03:08:13;16.38;;;1.85;;
23242;SDS011;11790;49.578;11.214;2024-02-23T03:13:13;2.22;;;0.70;;
23242;SDS011;11790;49.578;11.214;2024-02-23T03:18:13;3.13;;;0.98;;
23242;SDS011;11790;49.578;11.214;2024-02-23T03:23:14;2.42;;;0.80;;
23242;SDS011;11790;49.578;11.214;2024-02-23T03:28:15;1.80;;;0.60;;
23242;SDS011;11790;49.578;11.214;2024-02-23T03:33:15;3.85;;;0.77;;
23242;SDS011;11790;49.578;11.214;2024-02-23T03:38:16;3.78;;;0.63;;
23242;SDS011;11790;49.578;11.214;2024-02-23T03:43:16;4.90;;;0.82;;
23242;SDS011;11790;49.578;11.214;2024-02-23T03:48:17;3.78;;;0.77;;
23242;SDS011;11790;49.578;11.214;2024-02-23T03:53:18;3.63;;;0.90;;
23242;SDS011;11790;49.578;11.214;2024-02-23T03:58:18;2.45;;;0.50;;
23242;SDS011;11790;49.578;11.214;2024-02-23T04:03:18;2.73;;;0.63;;
23242;SDS011;11790;49.578;11.214;2024-02-23T04:08:19;5.47;;;0.60;;
23242;SDS011;11790;49.578;11.214;2024-02-23T04:13:19;7.10;;;1.08;;
23242;SDS011;11790;49.578;11.214;2024-02-23T04:18:19;5.07;;;1.10;;
23242;SDS011;11790;49.578;11.214;2024-02-23T04:23:20;5.78;;;1.55;;
23242;SDS011;11790;49.578;11.214;2024-02-23T04:28:20;3.15;;;0.77;;
23242;SDS011;11790;49.578;11.214;2024-02-23T04:33:21;6.50;;;0.90;;
23242;SDS011;11790;49.578;11.214;2024-02-23T04:38:23;2.58;;;0.68;;
23242;SDS011;11790;49.578;11.214;2024-02-23T04:43:23;5.38;;;1.00;;
23242;SDS011;11790;49.578;11.214;2024-02-23T04:48:24;4.28;;;0.82;;
23242;SDS011;11790;49.578;11.214;2024-02-23T04:53:24;4.82;;;0.77;;
23242;SDS011;11790;49.578;11.214;2024-02-23T04:58:26;4.07;;;0.80;;
23242;SDS011;11790;49.578;11.214;2024-02-23T05:03:26;4.40;;;0.90;;
23242;SDS011;11790;49.578;11.214;2024-02-23T05:08:27;3.60;;;0.60;;
23242;SDS011;11790;49.578;11.214;2024-02-23T05:13:28;5.80;;;0.80;;
23242;SDS011;11790;49.578;11.214;2024-02-23T05:18:28;5.00;;;1.02;;
23242;SDS011;11790;49.578;11.214;2024-02-23T05:23:30;4.43;;;0.77;;
23242;SDS011;11790;49.578;11.214;2024-02-23T05:28:30;4.07;;;0.90;;
23242;SDS011;11790;49.578;11.214;2024-02-23T05:33:30;8.10;;;1.38;;
23242;SDS011;11790;49.578;11.214;2024-02-23T05:38:30;5.47;;;1.25;;
23242;SDS011;11790;49.578;11.214;2024-02-23T05:43:31;3.97;;;0.82;;
23242;SDS011;11790;49.578;11.214;2024-02-23T05:48:31;5.07;;;1.23;;
23242;SDS011;11790;49.578;11.214;2024-02-23T05:53:31;3.30;;;0.80;;
23242;SDS011;11790;49.578;11.214;2024-02-23T05:58:33;7.13;;;1.17;;
23242;SDS011;11790;49.578;11.214;2024-02-23T06:03:33;1.55;;;0.50;;
23242;SDS011;11790;49.578;11.214;2024-02-23T06:08:33;4.78;;;0.90;;
23242;SDS011;11790;49.578;11.214;2024-02-23T06:13:34;5.70;;;1.17;;
23242;SDS011;11790;49.578;11.214;2024-02-23T06:18:34;6.90;;;1.08;;
23242;SDS011;11790;49.578;11.214;2024-02-23T06:23:34;6.35;;;1.27;;
23242;SDS011;11790;49.578;11.214;2024-02-23T06:28:34;8.82;;;2.00;;
23242;SDS011;11790;49.578;11.214;2024-02-23T06:33:37;3.97;;;1.00;;
23242;SDS011;11790;49.578;11.214;2024-02-23T06:38:37;4.37;;;1.10;;
23242;SDS011;11790;49.578;11.214;2024-02-23T06:43:37;5.03;;;0.90;;
23242;SDS011;11790;49.578;11.214;2024-02-23T06:48:38;5.70;;;1.10;;
23242;SDS011;11790;49.578;11.214;2024-02-23T06:53:38;3.67;;;0.80;;
23242;SDS011;11790;49.578;11.214;2024-02-23T06:58:38;4.43;;;1.00;;
23242;SDS011;11790;49.578;11.214;2024-02-23T07:03:39;6.47;;;1.23;;
23242;SDS011;11790;49.578;11.214;2024-02-23T07:08:41;6.28;;;1.20;;
23242;SDS011;11790;49.578;11.214;2024-02-23T07:13:44;6.25;;;1.13;;
23242;SDS011;11790;49.578;11.214;2024-02-23T07:18:44;5.00;;;0.77;;
23242;SDS011;11790;49.578;11.214;2024-02-23T07:23:45;3.80;;;0.93;;
23242;SDS011;11790;49.578;11.214;2024-02-23T07:28:45;3.58;;;1.10;;
23242;SDS011;11790;49.578;11.214;2024-02-23T07:33:46;4.53;;;1.10;;
23242;SDS011;11790;49.578;11.214;2024-02-23T07:38:46;5.78;;;0.93;;
23242;SDS011;11790;49.578;11.214;2024-02-23T07:43:47;5.28;;;0.80;;
23242;SDS011;11790;49.578;11.214;2024-02-23T07:48:47;5.13;;;1.17;;
23242;SDS011;11790;49.578;11.214;2024-02-23T07:53:48;2.38;;;0.82;;
23242;SDS011;11790;49.578;11.214;2024-02-23T07:58:48;5.47;;;1.10;;
23242;SDS011;11790;49.578;11.214;2024-02-23T08:03:48;2.60;;;1.15;;
23242;SDS011;11790;49.578;11.214;2024-02-23T08:08:50;3.72;;;0.75;;
23242;SDS011;11790;49.578;11.214;2024-02-23T08:13:50;6.28;;;1.00;;
23242;SDS011;11790;49.578;11.214;2024-02-23T08:18:51;6.47;;;1.10;;
23242;SDS011;11790;49.578;11.214;2024-02-23T08:23:51;3.85;;;1.05;;
23242;SDS011;11790;49.578;11.214;2024-02-23T08:28:51;4.85;;;1.15;;
23242;SDS011;11790;49.578;11.214;2024-02-23T08:33:52;2.07;;;1.10;;
23242;SDS011;11790;49.578;11.214;2024-02-23T08:38:52;3.03;;;0.88;;
23242;SDS011;11790;49.578;11.214;2024-02-23T08:43:52;5.97;;;1.45;;
23242;SDS011;11790;49.578;11.214;2024-02-23T08:48:54;3.15;;;0.93;;
23242;SDS011;11790;49.578;11.214;2024-02-23T08:53:56;3.47;;;0.60;;
23242;SDS011;11790;49.578;11.214;2024-02-23T08:58:57;4.15;;;0.90;;
23242;SDS011;11790;49.578;11.214;2024-02-23T09:03:58;3.60;;;0.77;;
23242;SDS011;11790;49.578;11.214;2024-02-23T09:08:58;5.57;;;0.90;;
23242;SDS011;11790;49.578;11.214;2024-02-23T09:13:58;3.20;;;1.00;;
23242;SDS011;11790;49.578;11.214;2024-02-23T09:18:59;4.70;;;1.05;;
23242;SDS011;11790;49.578;11.214;2024-02-23T09:23:59;3.27;;;1.50;;
23242;SDS011;11790;49.578;11.214;2024-02-23T09:28:59;2.70;;;1.00;;
23242;SDS011;11790;49.578;11.214;2024-02-23T09:34:00;4.55;;;1.42;;
23242;SDS011;11790;49.578;11.214;2024-02-23T09:39:00;1.65;;;0.80;;
23242;SDS011;11790;49.578;11.214;2024-02-23T09:44:02;6.53;;;1.40;;
23242;SDS011;11790;49.578;11.214;2024-02-23T09:49:02;3.90;;;1.10;;
23242;SDS011;11790;49.578;11.214;2024-02-23T09:54:03;8.07;;;1.75;;
23242;SDS011;11790;49.578;11.214;2024-02-23T09:59:03;3.38;;;1.35;;
23242;SDS011;11790;49.578;11.214;2024-02-23T10:04:04;5.13;;;1.15;;
23242;SDS011;11790;49.578;11.214;2024-02-23T10:09:06;3.72;;;0.80;;
23242;SDS011;11790;49.578;11.214;2024-02-23T10:19:14;2.92;;;1.08;;
23242;SDS011;11790;49.578;11.214;2024-02-23T10:24:18;2.58;;;0.93;;
23242;SDS011;11790;49.578;11.214;2024-02-23T10:29:21;2.92;;;0.80;;
23242;SDS011;11790;49.578;11.214;2024-02-23T10:34:21;4.53;;;0.80;;
23242;SDS011;11790;49.578;11.214;2024-02-23T10:39:30;2.35;;;0.70;;
23242;SDS011;11790;49.578;11.214;2024-02-23T10:44:42;3.17;;;0.80;;
23242;SDS011;11790;49.578;11.214;2024-02-23T10:49:48;3.60;;;0.75;;
23242;SDS011;11790;49.578;11.214;2024-02-23T10:54:54;2.38;;;0.70;;
23242;SDS011;11790;49.578;11.214;2024-02-23T10:59:58;3.40;;;0.60;;
23242;SDS011;11790;49.578;11.214;2024-02-23T11:04:58;5.53;;;0.70;;
23242;SDS011;11790;49.578;11.214;2024-02-23T11:09:59;4.00;;;0.70;;
23242;SDS011;11790;49.578;11.214;2024-02-23T11:15:00;3.15;;;0.95;;
23242;SDS011;11790;49.578;11.214;2024-02-23T11:20:14;3.50;;;0.85;;
23242;SDS011;11790;49.578;11.214;2024-02-23T11:25:26;3.25;;;0.80;;
23242;SDS011;11790;49.578;11.214;2024-02-23T11:30:43;3.08;;;0.60;;
23242;SDS011;11790;49.578;11.214;2024-02-23T11:35:52;5.70;;;0.75;;
23242;SDS011;11790;49.578;11.214;2024-02-23T11:41:03;3.22;;;0.90;;
23242;SDS011;11790;49.578;11.214;2024-02-23T11:46:05;4.82;;;1.02;;
23242;SDS011;11790;49.578;11.214;2024-02-23T11:51:07;2.80;;;1.02;;
23242;SDS011;11790;49.578;11.214;2024-02-23T12:01:33;3.35;;;1.10;;
23242;SDS011;11790;49.578;11.214;2024-02-23T12:06:36;3.47;;;1.00;;
23242;SDS011;11790;49.578;11.214;2024-02-23T12:11:39;6.45;;;2.63;;
23242;SDS011;11790;49.578;11.214;2024-02-23T12:16:39;2.47;;;1.38;;
23242;SDS011;11790;49.578;11.214;2024-02-23T12:21:45;2.35;;;0.77;;
23242;SDS011;11790;49.578;11.214;2024-02-23T12:26:45;20.20;;;1.60;;
23242;SDS011;11790;49.578;11.214;2024-02-23T12:31:45;5.30;;;1.00;;
23242;SDS011;11790;49.578;11.214;2024-02-23T12:36:45;3.55;;;0.90;;
23242;SDS011;11790;49.578;11.214;2024-02-23T12:41:46;4.45;;;0.82;;
23242;SDS011;11790;49.578;11.214;2024-02-23T12:46:46;2.75;;;0.80;;
23242;SDS011;11790;49.578;11.214;2024-02-23T12:51:47;3.60;;;0.60;;
23242;SDS011;11790;49.578;11.214;2024-02-23T12:56:47;4.50;;;0.97;;
23242;SDS011;11790;49.578;11.214;2024-02-23T13:01:47;3.90;;;0.88;;
23242;SDS011;11790;49.578;11.214;2024-02-23T13:06:47;3.07;;;1.13;;
23242;SDS011;11790;49.578;11.214;2024-02-23T13:11:48;2.95;;;1.00;;
23242;SDS011;11790;49.578;11.214;2024-02-23T13:16:57;4.20;;;1.08;;
23242;SDS011;11790;49.578;11.214;2024-02-23T13:21:57;1.52;;;0.68;;
23242;SDS011;11790;49.578;11.214;2024-02-23T13:27:00;3.88;;;1.70;;
23242;SDS011;11790;49.578;11.214;2024-02-23T13:32:00;3.70;;;1.60;;
23242;SDS011;11790;49.578;11.214;2024-02-23T13:37:00;5.07;;;1.40;;
23242;SDS011;11790;49.578;11.214;2024-02-23T13:42:01;2.47;;;0.70;;
23242;SDS011;11790;49.578;11.214;2024-02-23T13:47:01;4.57;;;1.02;;
23242;SDS011;11790;49.578;11.214;2024-02-23T13:52:01;3.47;;;1.00;;
23242;SDS011;11790;49.578;11.214;2024-02-23T13:57:01;4.13;;;1.00;;
23242;SDS011;11790;49.578;11.214;2024-02-23T14:02:02;3.40;;;0.70;;
23242;SDS011;11790;49.578;11.214;2024-02-23T14:07:02;5.32;;;1.40;;
23242;SDS011;11790;49.578;11.214;2024-02-23T14:12:04;6.22;;;1.80;;
23242;SDS011;11790;49.578;11.214;2024-02-23T14:17:04;4.57;;;1.50;;
23242;SDS011;11790;49.578;11.214;2024-02-23T14:22:04;9.75;;;2.80;;
23242;SDS011;11790;49.578;11.214;2024-02-23T14:27:05;5.93;;;1.52;;
23242;SDS011;11790;49.578;11.214;2024-02-23T14:32:05;4.30;;;1.42;;
23242;SDS011;11790;49.578;11.214;2024-02-23T14:37:05;4.65;;;1.30;;
23242;SDS011;11790;49.578;11.214;2024-02-23T14:42:06;2.60;;;1.02;;
23242;SDS011;11790;49.578;11.214;2024-02-23T14:47:09;3.53;;;1.05;;
23242;SDS011;11790;49.578;11.214;2024-02-23T14:52:11;2.75;;;0.88;;
23242;SDS011;11790;49.578;11.214;2024-02-23T14:57:11;3.97;;;0.75;;
23242;SDS011;11790;49.578;11.214;2024-02-23T15:07:43;2.63;;;0.63;;
23242;SDS011;11790;49.578;11.214;2024-02-23T15:12:54;3.30;;;0.75;;
23242;SDS011;11790;49.578;11.214;2024-02-23T15:18:16;3.13;;;0.90;;
23242;SDS011;11790;49.578;11.214;2024-02-23T15:23:24;1.75;;;0.82;;
23242;SDS011;11790;49.578;11.214;2024-02-23T15:28:34;11.00;;;4.25;;
23242;SDS011;11790;49.578;11.214;2024-02-23T15:33:35;4.50;;;2.00;;
23242;SDS011;11790;49.578;11.214;2024-02-23T15:38:38;3.53;;;1.48;;
23242;SDS011;11790;49.578;11.214;2024-02-23T15:43:38;3.78;;;1.70;;
23242;SDS011;11790;49.578;11.214;2024-02-23T15:48:41;4.82;;;3.03;;
23242;SDS011;11790;49.578;11.214;2024-02-23T15:53:45;8.18;;;3.72;;
23242;SDS011;11790;49.578;11.214;2024-02-23T15:58:48;19.38;;;5.43;;
23242;SDS011;11790;49.578;11.214;2024-02-23T16:03:48;12.60;;;4.97;;
23242;SDS011;11790;49.578;11.214;2024-02-23T16:08:48;10.10;;;4.87;;
23242;SDS011;11790;49.578;11.214;2024-02-23T16:13:49;6.20;;;3.38;;
23242;SDS011;11790;49.578;11.214;2024-02-23T16:18:55;6.68;;;3.05;;
23242;SDS011;11790;49.578;11.214;2024-02-23T16:23:59;7.50;;;3.00;;
23242;SDS011;11790;49.578;11.214;2024-02-23T16:29:00;7.82;;;2.72;;
23242;SDS011;11790;49.578;11.214;2024-02-23T16:34:02;8.93;;;3.17;;
23242;SDS011;11790;49.578;11.214;2024-02-23T16:39:02;5.95;;;3.08;;
23242;SDS011;11790;49.578;11.214;2024-02-23T16:44:03;10.35;;;4.07;;
23242;SDS011;11790;49.578;11.214;2024-02-23T16:49:04;5.53;;;2.63;;
23242;SDS011;11790;49.578;11.214;2024-02-23T16:54:05;7.47;;;2.58;;
23242;SDS011;11790;49.578;11.214;2024-02-23T16:59:06;7.97;;;3.60;;
23242;SDS011;11790;49.578;11.214;2024-02-23T17:04:06;11.98;;;4.05;;
23242;SDS011;11790;49.578;11.214;2024-02-23T17:09:06;5.03;;;2.90;;
23242;SDS011;11790;49.578;11.214;2024-02-23T17:14:09;5.75;;;2.80;;
23242;SDS011;11790;49.578;11.214;2024-02-23T17:19:10;4.03;;;2.20;;
23242;SDS011;11790;49.578;11.214;2024-02-23T17:24:10;6.93;;;3.63;;
23242;SDS011;11790;49.578;11.214;2024-02-23T17:29:10;6.85;;;2.83;;
23242;SDS011;11790;49.578;11.214;2024-02-23T17:34:12;6.25;;;2.63;;
23242;SDS011;11790;49.578;11.214;2024-02-23T17:39:16;5.50;;;2.50;;
23242;SDS011;11790;49.578;11.214;2024-02-23T17:44:16;5.15;;;2.33;;
23242;SDS011;11790;49.578;11.214;2024-02-23T17:49:17;5.28;;;2.45;;
23242;SDS011;11790;49.578;11.214;2024-02-23T17:54:19;7.07;;;2.40;;
23242;SDS011;11790;49.578;11.214;2024-02-23T17:59:19;6.90;;;3.60;;
23242;SDS011;11790;49.578;11.214;2024-02-23T18:04:19;6.47;;;3.90;;
23242;SDS011;11790;49.578;11.214;2024-02-23T18:09:22;8.07;;;3.88;;
23242;SDS011;11790;49.578;11.214;2024-02-23T18:14:22;18.75;;;6.32;;
23242;SDS011;11790;49.578;11.214;2024-02-23T18:19:22;15.00;;;4.80;;
23242;SDS011;11790;49.578;11.214;2024-02-23T18:24:23;7.20;;;3.15;;
23242;SDS011;11790;49.578;11.214;2024-02-23T18:29:23;11.93;;;3.10;;
23242;SDS011;11790;49.578;11.214;2024-02-23T18:34:23;8.15;;;3.17;;
23242;SDS011;11790;49.578;11.214;2024-02-23T18:39:23;5.60;;;2.83;;
23242;SDS011;11790;49.578;11.214;2024-02-23T18:44:23;9.35;;;4.13;;
23242;SDS011;11790;49.578;11.214;2024-02-23T18:49:23;8.63;;;4.07;;
23242;SDS011;11790;49.578;11.214;2024-02-23T18:54:26;15.55;;;5.47;;
23242;SDS011;11790;49.578;11.214;2024-02-23T18:59:26;10.75;;;3.63;;
23242;SDS011;11790;49.578;11.214;2024-02-23T19:04:26;6.25;;;2.85;;
23242;SDS011;11790;49.578;11.214;2024-02-23T19:09:29;6.40;;;2.63;;
23242;SDS011;11790;49.578;11.214;2024-02-23T19:14:29;6.00;;;3.00;;
23242;SDS011;11790;49.578;11.214;2024-02-23T19:19:30;9.40;;;3.92;;
23242;SDS011;11790;49.578;11.214;2024-02-23T19:24:30;8.05;;;4.47;;
23242;SDS011;11790;49.578;11.214;2024-02-23T19:29:30;8.77;;;4.18;;
23242;SDS011;11790;49.578;11.214;2024-02-23T19:34:31;7.15;;;3.20;;
23242;SDS011;11790;49.578;11.214;2024-02-23T19:39:31;6.20;;;3.10;;
23242;SDS011;11790;49.578;11.214;2024-02-23T19:44:32;8.10;;;2.88;;
23242;SDS011;11790;49.578;11.214;2024-02-23T19:49:32;5.07;;;3.35;;
23242;SDS011;11790;49.578;11.214;2024-02-23T19:54:32;9.97;;;4.37;;
23242;SDS011;11790;49.578;11.214;2024-02-23T19:59:32;8.75;;;4.93;;
23242;SDS011;11790;49.578;11.214;2024-02-23T20:04:36;7.85;;;4.05;;
23242;SDS011;11790;49.578;11.214;2024-02-23T20:09:37;6.70;;;3.40;;
23242;SDS011;11790;49.578;11.214;2024-02-23T20:14:37;6.75;;;3.13;;
23242;SDS011;11790;49.578;11.214;2024-02-23T20:19:37;6.10;;;2.63;;
23242;SDS011;11790;49.578;11.214;2024-02-23T20:24:37;5.03;;;2.70;;
23242;SDS011;11790;49.578;11.214;2024-02-23T20:29:38;7.28;;;3.50;;
23242;SDS011;11790;49.578;11.214;2024-02-23T20:34:38;5.10;;;2.83;;
23242;SDS011;11790;49.578;11.214;2024-02-23T20:39:38;6.07;;;3.13;;
23242;SDS011;11790;49.578;11.214;2024-02-23T20:44:38;6.25;;;2.65;;
23242;SDS011;11790;49.578;11.214;2024-02-23T20:49:39;5.38;;;3.03;;
23242;SDS011;11790;49.578;11.214;2024-02-23T20:54:40;6.75;;;3.53;;
23242;SDS011;11790;49.578;11.214;2024-02-23T20:59:43;10.55;;;4.50;;
23242;SDS011;11790;49.578;11.214;2024-02-23T21:04:43;32.90;;;15.82;;
23242;SDS011;11790;49.578;11.214;2024-02-23T21:09:43;18.38;;;9.85;;
23242;SDS011;11790;49.578;11.214;2024-02-23T21:14:44;25.85;;;13.80;;
23242;SDS011;11790;49.578;11.214;2024-02-23T21:19:44;21.95;;;13.68;;
23242;SDS011;11790;49.578;11.214;2024-02-23T21:24:44;9.18;;;4.95;;
23242;SDS011;11790;49.578;11.214;2024-02-23T21:29:46;10.05;;;5.60;;
23242;SDS011;11790;49.578;11.214;2024-02-23T21:34:47;7.25;;;4.30;;
23242;SDS011;11790;49.578;11.214;2024-02-23T21:39:47;9.55;;;4.22;;
23242;SDS011;11790;49.578;11.214;2024-02-23T21:44:47;8.18;;;4.07;;
23242;SDS011;11790;49.578;11.214;2024-02-23T21:49:47;5.38;;;2.40;;
23242;SDS011;11790;49.578;11.214;2024-02-23T21:54:48;7.85;;;2.60;;
23242;SDS011;11790;49.578;11.214;2024-02-23T21:59:48;3.63;;;1.83;;
23242;SDS011;11790;49.578;11.214;2024-02-23T22:04:49;5.03;;;2.05;;
23242;SDS011;11790;49.578;11.214;2024-02-23T22:09:53;4.47;;;1.70;;
23242;SDS011;11790;49.578;11.214;2024-02-23T22:14:56;4.10;;;2.42;;
23242;SDS011;11790;49.578;11.214;2024-02-23T22:20:03;4.80;;;2.38;;
23242;SDS011;11790;49.578;11.214;2024-02-23T22:25:03;3.88;;;2.10;;
23242;SDS011;11790;49.578;11.214;2024-02-23T22:30:04;4.50;;;2.47;;
23242;SDS011;11790;49.578;11.214;2024-02-23T22:35:04;3.03;;;2.00;;
23242;SDS011;11790;49.578;11.214;2024-02-23T22:40:05;2.65;;;1.67;;
23242;SDS011;11790;49.578;11.214;2024-02-23T22:45:08;2.95;;;1.67;;
23242;SDS011;11790;49.578;11.214;2024-02-23T22:50:10;4.57;;;1.60;;
23242;SDS011;11790;49.578;11.214;2024-02-23T22:55:10;2.75;;;1.65;;
23242;SDS011;11790;49.578;11.214;2024-02-23T23:00:11;3.58;;;1.73;;
23242;SDS011;11790;49.578;11.214;2024-02-23T23:05:11;3.88;;;1.55;;
23242;SDS011;11790;49.578;11.214;2024-02-23T23:10:11;2.90;;;1.35;;
23242;SDS011;11790;49.578;11.214;2024-02-23T23:15:11;3.13;;;1.42;;
23242;SDS011;11790;49.578;11.214;2024-02-23T23:20:12;3.13;;;1.70;;
23242;SDS011;11790;49.578;11.214;2024-02-23T23:25:12;3.55;;;1.67;;
23242;SDS011;11790;49.578;11.214;2024-02-23T23:30:12;4.27;;;1.70;;
23242;SDS011;11790;49.578;11.214;2024-02-23T23:35:12;4.40;;;1.33;;
23242;SDS011;11790;49.578;11.214;2024-02-23T23:40:13;2.20;;;1.40;;
23242;SDS011;11790;49.578;11.214;2024-02-23T23:45:13;5.45;;;1.88;;
23242;SDS011;11790;49.578;11.214;2024-02-23T23:50:14;2.40;;;1.48;;
23242;SDS011;11790;49.578;11.214;2024-02-23T23:55:14;2.10;;;1.30;;
